Time;durP1;ratioP1;P1;durP2;ratioP2;P2;SDS_P1;SDS_P2;PMS_P1;PMS_P2;Temp;Humidity;BMP_temperature;BMP_pressure;BME280_temperature;BME280_humidity;BME280_pressure;Samples;Min_cycle;Max_cycle;Signal;HPM_P1;HPM_P2
2022/05/27 00:00:41;;;;;;;;;;;;;;;25.97;55.81;98907.00;2088016;28;20353;-46
2022/05/27 00:01:43;;;;;;;;;;;;;;;25.97;56.04;98912.44;2088375;28;19924;-45
2022/05/27 00:02:44;;;;;;;;;;;;;;;25.96;56.44;98907.25;2088650;28;19929;-48
2022/05/27 00:03:45;;;;;;;;;;;;;;;25.97;56.64;98908.91;2091085;28;19931;-47
2022/05/27 00:04:48;;;;;;;;;;;;;;;25.97;56.50;98906.19;2087329;28;19928;-48
2022/05/27 00:05:50;;;;;;;;;;;;;;;25.96;56.71;98908.06;2087106;28;19964;-48
2022/05/27 00:06:51;;;;;;;;;;;;;;;25.94;56.30;98899.34;2089204;28;19932;-45
2022/05/27 00:07:52;;;;;;;;;;;;;;;25.96;56.41;98902.63;2088464;28;20497;-46
2022/05/27 00:08:53;;;;;;;;;;;;;;;25.96;56.36;98905.34;2087142;28;19932;-45
2022/05/27 00:09:54;;;;;;;;;;;;;;;25.96;56.36;98904.53;2087478;28;19936;-47
2022/05/27 00:10:56;;;;;;;;;;;;;;;25.97;56.37;98908.91;2088465;28;19929;-48
2022/05/27 00:11:56;;;;;;;;;;;;;;;25.97;56.51;98908.91;2089170;28;19931;-50
2022/05/27 00:12:58;;;;;;;;;;;;;;;25.96;56.72;98910.78;2086903;28;20035;-51
2022/05/27 00:13:59;;;;;;;;;;;;;;;25.97;56.39;98914.34;2087561;28;19990;-48
2022/05/27 00:15:01;;;;;;;;;;;;;;;25.96;56.82;98915.41;2087818;28;19947;-47
2022/05/27 00:16:01;;;;;;;;;;;;;;;25.97;56.71;98912.44;2087171;28;19932;-46
2022/05/27 00:17:03;;;;;;;;;;;;;;;25.99;56.36;98913.03;2091323;28;20012;-46
2022/05/27 00:18:04;;;;;;;;;;;;;;;25.95;56.80;98921.91;2085825;28;20853;-45
2022/05/27 00:19:05;;;;;;;;;;;;;;;25.95;56.68;98920.00;2085531;28;19932;-45
2022/05/27 00:20:08;;;;;;;;;;;;;;;25.95;56.86;98919.19;2085902;28;19932;-48
2022/05/27 00:21:10;;;;;;;;;;;;;;;25.92;56.64;98920.50;2091052;28;20294;-45
2022/05/27 00:22:10;;;;;;;;;;;;;;;25.92;56.95;98915.06;2088012;28;19929;-45
2022/05/27 00:23:12;;;;;;;;;;;;;;;25.92;56.84;98915.06;2089394;28;19929;-44
2022/05/27 00:24:13;;;;;;;;;;;;;;;25.91;57.04;98920.75;2086959;28;19929;-46
2022/05/27 00:25:15;;;;;;;;;;;;;;;25.91;57.02;98908.00;2088114;28;20096;-49
2022/05/27 00:26:15;;;;;;;;;;;;;;;25.90;56.94;98910.94;2085013;28;20434;-48
2022/05/27 00:27:17;;;;;;;;;;;;;;;25.91;56.86;98905.28;2089644;28;20019;-48
2022/05/27 00:28:17;;;;;;;;;;;;;;;25.92;56.93;98903.38;2083249;28;19935;-46
2022/05/27 00:29:19;;;;;;;;;;;;;;;25.92;56.92;98906.09;2085928;28;19924;-49
2022/05/27 00:30:20;;;;;;;;;;;;;;;25.90;56.72;98895.47;2087027;28;20573;-47
2022/05/27 00:31:21;;;;;;;;;;;;;;;25.90;56.79;98898.19;2091404;28;19928;-49
2022/05/27 00:32:22;;;;;;;;;;;;;;;25.91;56.79;98899.00;2087051;28;19931;-49
2022/05/27 00:33:23;;;;;;;;;;;;;;;25.91;56.86;98901.72;2086578;28;20392;-47
2022/05/27 00:34:24;;;;;;;;;;;;;;;25.91;56.67;98902.56;2089670;28;20382;-49
2022/05/27 00:35:27;;;;;;;;;;;;;;;25.91;56.78;98905.28;2089477;28;19979;-46
2022/05/27 00:36:28;;;;;;;;;;;;;;;25.90;56.86;98902.81;2088599;28;19929;-47
2022/05/27 00:37:29;;;;;;;;;;;;;;;25.91;56.91;98897.13;2088478;28;19924;-49
2022/05/27 00:38:30;;;;;;;;;;;;;;;25.91;57.36;98902.56;2085656;28;20482;-45
2022/05/27 00:39:32;;;;;;;;;;;;;;;25.91;57.30;98907.16;2090190;28;19925;-48
2022/05/27 00:40:36;;;;;;;;;;;;;;;25.94;57.36;98909.41;2089287;28;19968;-48
2022/05/27 00:41:38;;;;;;;;;;;;;;;25.92;56.96;98903.38;2086439;28;21347;-46
2022/05/27 00:42:39;;;;;;;;;;;;;;;25.91;57.04;98912.59;2083040;28;19939;-47
2022/05/27 00:43:41;;;;;;;;;;;;;;;25.92;57.00;98901.47;2086855;28;20375;-45
2022/05/27 00:44:43;;;;;;;;;;;;;;;25.89;57.06;98899.25;2087770;28;19925;-47
2022/05/27 00:45:45;;;;;;;;;;;;;;;25.89;56.94;98901.16;2085950;28;19932;-47
2022/05/27 00:46:46;;;;;;;;;;;;;;;25.89;57.38;98898.44;2088506;28;19928;-46
2022/05/27 00:47:49;;;;;;;;;;;;;;;25.88;56.91;98905.75;2086750;28;20003;-47
2022/05/27 00:48:50;;;;;;;;;;;;;;;25.91;56.98;98908.00;2088786;28;19929;-46
2022/05/27 00:49:54;;;;;;;;;;;;;;;25.89;56.88;98893.81;2089331;28;19955;-47
2022/05/27 00:50:57;;;;;;;;;;;;;;;25.90;56.97;98898.19;2089800;28;19928;-47
2022/05/27 00:52:02;;;;;;;;;;;;;;;25.90;56.93;98900.91;2091118;28;20362;-46
2022/05/27 00:53:04;;;;;;;;;;;;;;;25.91;57.15;98896.28;2085742;28;19932;-46
2022/05/27 00:54:06;;;;;;;;;;;;;;;25.92;56.82;98896.06;2087761;28;19935;-46
2022/05/27 00:55:08;;;;;;;;;;;;;;;25.92;57.08;98892.50;2088689;28;20964;-48
2022/05/27 00:56:13;;;;;;;;;;;;;;;25.90;56.94;98892.75;2086589;28;19929;-47
2022/05/27 00:57:15;;;;;;;;;;;;;;;25.90;57.35;98900.09;2087781;28;19929;-48
2022/05/27 00:58:18;;;;;;;;;;;;;;;25.90;56.91;98900.91;2086996;28;20035;-48
2022/05/27 00:59:22;;;;;;;;;;;;;;;25.91;57.18;98896.28;2083760;28;20390;-46
2022/05/27 01:00:24;;;;;;;;;;;;;;;25.90;56.87;98900.91;2085031;28;19929;-50
2022/05/27 01:01:26;;;;;;;;;;;;;;;25.92;57.08;98896.06;2086226;28;19933;-47
2022/05/27 01:02:28;;;;;;;;;;;;;;;25.89;57.03;98893.81;2085111;28;19936;-47
2022/05/27 01:03:29;;;;;;;;;;;;;;;25.89;57.08;98893.00;2086147;28;19938;-46
2022/05/27 01:04:32;;;;;;;;;;;;;;;25.89;57.23;98901.97;2087582;28;19983;-46
2022/05/27 01:05:33;;;;;;;;;;;;;;;25.89;56.95;98899.25;2086747;28;19936;-46
2022/05/27 01:06:36;;;;;;;;;;;;;;;25.90;56.87;98895.47;2086440;28;19935;-47
2022/05/27 01:07:36;;;;;;;;;;;;;;;25.90;57.21;98898.19;2085349;28;19948;-46
2022/05/27 01:08:39;;;;;;;;;;;;;;;25.87;56.93;98893.25;2086753;28;20436;-46
2022/05/27 01:09:41;;;;;;;;;;;;;;;25.89;56.91;98890.28;2087327;28;19924;-45
2022/05/27 01:10:48;;;;;;;;;;;;;;;25.89;56.85;98893.81;2086478;28;20385;-47
2022/05/27 01:12:00;;;;;;;;;;;;;;;25.90;56.83;98886.50;2087186;28;19998;-46
2022/05/27 01:13:12;;;;;;;;;;;;;;;25.90;57.08;98889.22;2084785;28;19933;-47
2022/05/27 01:14:18;;;;;;;;;;;;;;;25.91;56.69;98888.13;2084296;28;19935;-47
2022/05/27 01:15:24;;;;;;;;;;;;;;;25.90;57.20;98890.03;2088671;28;19986;-46
2022/05/27 01:16:31;;;;;;;;;;;;;;;25.89;56.69;98885.69;2085467;28;19925;-47
2022/05/27 01:17:42;;;;;;;;;;;;;;;25.92;56.80;98887.09;2085540;28;19929;-46
2022/05/27 01:20:19;;;;;;;;;;;;;;;25.89;57.06;98887.56;2085286;28;19936;-46
2022/05/27 01:21:25;;;;;;;;;;;;;;;25.91;56.69;98879.97;2082020;28;19939;-46
2022/05/27 01:22:43;;;;;;;;;;;;;;;25.89;57.00;98887.56;2088232;28;19924;-45
2022/05/27 01:24:01;;;;;;;;;;;;;;;25.89;56.69;98882.13;2082778;28;19971;-45
2022/05/27 01:25:20;;;;;;;;;;;;;;;25.89;56.80;98876.69;2087178;28;19924;-45
2022/05/27 01:26:36;;;;;;;;;;;;;;;25.89;56.70;98880.25;2088627;28;19928;-46
2022/05/27 01:27:55;;;;;;;;;;;;;;;25.89;56.71;98868.56;2088808;28;19940;-47
2022/05/27 01:29:03;;;;;;;;;;;;;;;25.90;57.02;98873.72;2081342;28;19939;-46
2022/05/27 01:30:29;;;;;;;;;;;;;;;25.90;56.60;98868.28;2087399;28;19971;-47
2022/05/27 01:31:36;;;;;;;;;;;;;;;25.92;56.73;98870.78;2090121;28;19925;-47
2022/05/27 01:32:41;;;;;;;;;;;;;;;25.93;56.64;98867.78;2086852;28;19982;-46
2022/05/27 01:33:44;;;;;;;;;;;;;;;25.93;56.46;98866.97;2086378;28;19933;-45
2022/05/27 01:34:52;;;;;;;;;;;;;;;25.92;56.80;98865.34;2089498;28;19965;-47
2022/05/27 01:35:57;;;;;;;;;;;;;;;25.92;56.66;98868.06;2088024;28;20378;-46
2022/05/27 01:37:05;;;;;;;;;;;;;;;25.93;56.64;98869.69;2084511;28;20051;-47
2022/05/27 01:38:10;;;;;;;;;;;;;;;25.88;56.58;98865.00;2087192;28;19931;-44
2022/05/27 01:39:17;;;;;;;;;;;;;;;25.90;56.97;98868.28;2087716;28;19924;-45
2022/05/27 01:40:24;;;;;;;;;;;;;;;25.90;56.92;98862.84;2087771;28;19925;-45
2022/05/27 01:41:35;;;;;;;;;;;;;;;25.87;56.73;98871.50;2090822;28;20310;-46
2022/05/27 01:42:38;;;;;;;;;;;;;;;25.88;57.06;98862.28;2085228;28;19932;-45
2022/05/27 01:43:42;;;;;;;;;;;;;;;25.87;56.79;98866.06;2078073;28;20061;-46
2022/05/27 01:44:46;;;;;;;;;;;;;;;25.85;56.71;98866.31;2083491;28;19963;-46
2022/05/27 01:45:53;;;;;;;;;;;;;;;25.89;56.68;98865.84;2084155;28;19929;-47
2022/05/27 01:46:56;;;;;;;;;;;;;;;25.88;56.95;98856.84;2084971;28;20386;-46
2022/05/27 01:48:01;;;;;;;;;;;;;;;25.88;56.59;98856.00;2086312;28;19983;-47
2022/05/27 01:49:08;;;;;;;;;;;;;;;25.88;56.72;98858.72;2085889;28;19929;-46
2022/05/27 01:50:10;;;;;;;;;;;;;;;25.90;56.64;98862.03;2088614;28;19932;-50
2022/05/27 01:51:15;;;;;;;;;;;;;;;25.88;56.42;98859.56;2088170;28;20035;-47
2022/05/27 01:52:20;;;;;;;;;;;;;;;25.89;56.75;98860.41;2089417;28;19925;-49
2022/05/27 01:53:25;;;;;;;;;;;;;;;25.88;56.44;98869.59;2088659;28;19935;-49
2022/05/27 01:54:32;;;;;;;;;;;;;;;25.88;56.85;98858.72;2092031;28;19928;-44
2022/05/27 01:55:36;;;;;;;;;;;;;;;25.88;56.87;98859.56;2086837;28;19924;-46
2022/05/27 01:56:39;;;;;;;;;;;;;;;25.89;56.73;98855.78;2088601;28;19970;-44
2022/05/27 01:57:44;;;;;;;;;;;;;;;25.87;56.33;98862.53;2086481;28;19933;-46
2022/05/27 01:58:46;;;;;;;;;;;;;;;25.87;56.46;98865.25;2087072;28;20343;-46
2022/05/27 01:59:55;;;;;;;;;;;;;;;25.89;56.69;98863.13;2085443;28;20999;-44
2022/05/27 02:00:55;;;;;;;;;;;;;;;25.88;56.35;98861.44;2087145;28;19966;-46
2022/05/27 02:02:02;;;;;;;;;;;;;;;25.87;56.24;98862.53;2089411;28;19935;-45
2022/05/27 02:03:05;;;;;;;;;;;;;;;25.88;56.50;98870.41;2087274;28;19964;-46
2022/05/27 02:04:09;;;;;;;;;;;;;;;25.87;56.58;98857.91;2086639;28;20298;-45
2022/05/27 02:05:11;;;;;;;;;;;;;;;25.87;56.21;98863.34;2089480;28;19932;-45
2022/05/27 02:06:15;;;;;;;;;;;;;;;25.87;56.42;98859.81;2089698;28;19929;-45
2022/05/27 02:07:19;;;;;;;;;;;;;;;25.85;56.07;98860.91;2089543;28;20385;-50
2022/05/27 02:08:23;;;;;;;;;;;;;;;25.86;56.38;98861.72;2087445;28;20317;-46
2022/05/27 02:09:27;;;;;;;;;;;;;;;25.88;56.00;98854.13;2088156;28;19950;-46
2022/05/27 02:10:32;;;;;;;;;;;;;;;25.87;56.14;98851.66;2079348;28;19932;-45
2022/05/27 02:11:33;;;;;;;;;;;;;;;25.87;56.44;98849.75;2084973;28;19975;-44
2022/05/27 02:12:38;;;;;;;;;;;;;;;25.83;56.15;98854.06;2087320;28;19929;-45
2022/05/27 02:13:40;;;;;;;;;;;;;;;25.85;56.36;98855.47;2084598;28;19932;-45
2022/05/27 02:14:45;;;;;;;;;;;;;;;25.87;56.67;98852.47;2084451;28;20609;-44
2022/05/27 02:15:47;;;;;;;;;;;;;;;25.86;56.29;98856.28;2085369;28;20596;-46
2022/05/27 02:16:52;;;;;;;;;;;;;;;25.87;56.57;98852.47;2082498;28;20447;-45
2022/05/27 02:17:55;;;;;;;;;;;;;;;25.87;56.34;98857.91;2090696;28;20011;-48
2022/05/27 02:18:59;;;;;;;;;;;;;;;25.87;56.42;98852.47;2084337;28;19929;-46
2022/05/27 02:20:02;;;;;;;;;;;;;;;25.87;56.39;98851.66;2087212;28;20386;-45
2022/05/27 02:21:06;;;;;;;;;;;;;;;25.88;56.73;98851.41;2085119;28;20397;-44
2022/05/27 02:22:09;;;;;;;;;;;;;;;25.88;56.23;98848.69;2086454;28;20520;-46
2022/05/27 02:23:23;;;;;;;;;;;;;;;25.85;56.59;98850.03;2086066;28;20027;-47
2022/05/27 02:24:26;;;;;;;;;;;;;;;25.84;56.31;98836.66;2088550;28;19980;-45
2022/05/27 02:25:30;;;;;;;;;;;;;;;25.85;56.71;98844.59;2086882;28;19932;-45
2022/05/27 02:26:32;;;;;;;;;;;;;;;25.85;56.36;98847.31;2086547;28;19961;-45
2022/05/27 02:27:37;;;;;;;;;;;;;;;25.84;56.35;98848.34;2080613;28;20439;-45
2022/05/27 02:28:39;;;;;;;;;;;;;;;25.83;56.35;98849.44;2082503;28;19940;-44
2022/05/27 02:29:42;;;;;;;;;;;;;;;25.84;56.75;98844.81;2081576;28;19925;-46
2022/05/27 02:30:44;;;;;;;;;;;;;;;25.83;56.67;98846.72;2087594;28;19966;-46
2022/05/27 02:31:48;;;;;;;;;;;;;;;25.84;56.54;98842.09;2089603;28;19929;-46
2022/05/27 02:35:07;;;;;;;;;;;;;;;25.86;56.82;98839.97;2082840;28;19978;-45
2022/05/27 02:35:36;;;;;;;;;;;;;;;25.84;56.98;98836.66;2083855;28;19928;-46
2022/05/27 02:36:39;;;;;;;;;;;;;;;25.84;56.43;98833.97;2088440;28;19932;-45
2022/05/27 02:37:43;;;;;;;;;;;;;;;25.83;56.38;98833.13;2085325;28;20408;-47
2022/05/27 02:38:43;;;;;;;;;;;;;;;25.82;56.52;98836.88;2088170;28;20425;-45
2022/05/27 02:39:45;;;;;;;;;;;;;;;25.83;56.46;98840.47;2083445;28;19935;-45
2022/05/27 02:40:50;;;;;;;;;;;;;;;25.83;56.83;98833.13;2086519;28;19944;-45
2022/05/27 02:41:57;;;;;;;;;;;;;;;25.82;56.62;98836.06;2087019;28;20016;-45
2022/05/27 02:43:04;;;;;;;;;;;;;;;25.81;57.12;98837.13;2087975;28;20565;-44
2022/05/27 02:44:18;;;;;;;;;;;;;;;25.80;57.09;98840.94;2086014;28;19990;-44
2022/05/27 02:45:24;;;;;;;;;;;;;;;25.80;56.82;98840.94;2083875;28;19924;-47
2022/05/27 02:46:29;;;;;;;;;;;;;;;25.78;56.87;98837.63;2087300;28;19964;-47
2022/05/27 02:47:35;;;;;;;;;;;;;;;25.79;56.93;98823.78;2085966;28;19982;-47
2022/05/27 02:48:40;;;;;;;;;;;;;;;25.80;56.76;98828.16;2087196;28;19932;-46
2022/05/27 02:49:50;;;;;;;;;;;;;;;25.82;56.81;98819.75;2086403;28;21171;-45
2022/05/27 02:50:54;;;;;;;;;;;;;;;25.81;56.86;98824.38;2086489;28;19929;-47
2022/05/27 02:52:02;;;;;;;;;;;;;;;25.81;56.82;98823.56;2086153;28;20525;-48
2022/05/27 02:53:07;;;;;;;;;;;;;;;25.81;56.63;98823.56;2082480;28;20302;-48
2022/05/27 02:54:11;;;;;;;;;;;;;;;25.83;56.51;98818.72;2085440;28;19976;-47
2022/05/27 02:55:16;;;;;;;;;;;;;;;25.82;56.54;98823.28;2086302;28;19929;-51
2022/05/27 02:56:20;;;;;;;;;;;;;;;25.83;56.24;98824.97;2084065;28;19925;-48
2022/05/27 02:57:24;;;;;;;;;;;;;;;25.81;56.24;98827.09;2086208;28;20318;-47
2022/05/27 02:58:25;;;;;;;;;;;;;;;25.82;56.35;98830.63;2081537;28;19928;-46
2022/05/27 02:59:27;;;;;;;;;;;;;;;25.81;56.51;98824.38;2083047;28;19967;-49
2022/05/27 03:00:30;;;;;;;;;;;;;;;25.80;56.22;98824.63;2087772;28;19968;-50
2022/05/27 03:01:32;;;;;;;;;;;;;;;25.83;56.55;98824.16;2085031;28;19929;-47
2022/05/27 03:02:33;;;;;;;;;;;;;;;25.82;56.54;98822.47;2087719;28;19979;-49
2022/05/27 03:03:34;;;;;;;;;;;;;;;25.80;56.39;98821.91;2084027;28;21265;-49
2022/05/27 03:04:37;;;;;;;;;;;;;;;25.81;56.53;98818.13;2084723;28;19932;-46
2022/05/27 03:05:43;;;;;;;;;;;;;;;25.81;56.77;98818.13;2087385;28;19971;-47
2022/05/27 03:06:50;;;;;;;;;;;;;;;25.83;56.43;98816.00;2088062;28;19929;-46
2022/05/27 03:07:58;;;;;;;;;;;;;;;25.82;56.17;98819.75;2082574;28;19929;-47
2022/05/27 03:09:03;;;;;;;;;;;;;;;25.80;56.79;98816.47;2087017;28;19924;-49
2022/05/27 03:10:21;;;;;;;;;;;;;;;25.80;56.44;98808.34;2089061;28;19936;-46
2022/05/27 03:11:26;;;;;;;;;;;;;;;25.80;56.47;98825.44;2086499;28;19928;-46
2022/05/27 03:12:37;;;;;;;;;;;;;;;25.79;56.37;98828.41;2086224;28;20011;-47
2022/05/27 03:13:50;;;;;;;;;;;;;;;25.81;56.82;98820.84;2087950;28;19947;-46
2022/05/27 03:14:59;;;;;;;;;;;;;;;25.80;56.25;98824.63;2082983;28;19928;-48
2022/05/27 03:16:05;;;;;;;;;;;;;;;25.81;56.56;98826.28;2088013;28;19947;-48
2022/05/27 03:17:13;;;;;;;;;;;;;;;25.81;56.41;98823.56;2080883;28;19939;-46
2022/05/27 03:18:21;;;;;;;;;;;;;;;25.80;56.47;98827.34;2084387;28;19975;-46
2022/05/27 03:19:35;;;;;;;;;;;;;;;25.78;56.35;98822.16;2084525;28;19933;-49
2022/05/27 03:20:47;;;;;;;;;;;;;;;25.81;56.40;98820.84;2090302;28;19924;-46
2022/05/27 03:21:51;;;;;;;;;;;;;;;25.76;56.37;98824.28;2086194;28;20003;-50
2022/05/27 03:23:05;;;;;;;;;;;;;;;25.79;56.38;98823.78;2090343;28;19967;-47
2022/05/27 03:24:13;;;;;;;;;;;;;;;25.81;56.62;98820.84;2090065;28;19924;-46
2022/05/27 03:25:19;;;;;;;;;;;;;;;25.79;56.45;98817.53;2087501;28;19940;-46
2022/05/27 03:26:26;;;;;;;;;;;;;;;25.79;56.62;98817.53;2089790;28;19928;-48
2022/05/27 03:27:33;;;;;;;;;;;;;;;25.81;56.72;98815.41;2086696;28;19932;-48
2022/05/27 03:28:39;;;;;;;;;;;;;;;25.78;56.23;98814.00;2087450;28;19936;-46
2022/05/27 03:29:45;;;;;;;;;;;;;;;25.79;56.25;98814.81;2082777;28;19936;-47
2022/05/27 03:30:50;;;;;;;;;;;;;;;25.79;55.93;98820.25;2087221;28;19978;-45
2022/05/27 03:31:55;;;;;;;;;;;;;;;25.80;56.27;98816.47;2087277;28;19931;-47
2022/05/27 03:33:00;;;;;;;;;;;;;;;25.81;55.27;98818.13;2089135;28;19929;-47
2022/05/27 03:34:07;;;;;;;;;;;;;;;25.79;55.50;98812.91;2087083;28;20695;-46
2022/05/27 03:35:13;;;;;;;;;;;;;;;25.81;55.69;98812.69;2086191;28;19929;-48
2022/05/27 03:36:19;;;;;;;;;;;;;;;25.82;55.36;98811.59;2082495;28;19967;-49
2022/05/27 03:37:24;;;;;;;;;;;;;;;25.80;55.07;98802.91;2084438;28;19928;-49
2022/05/27 03:38:27;;;;;;;;;;;;;;;25.81;55.27;98812.69;2084052;28;20637;-47
2022/05/27 03:39:31;;;;;;;;;;;;;;;25.79;55.08;98806.66;2087384;28;19979;-45
2022/05/27 03:40:36;;;;;;;;;;;;;;;25.81;55.30;98804.53;2089580;28;20004;-47
2022/05/27 03:41:42;;;;;;;;;;;;;;;25.79;54.82;98810.19;2085971;28;19940;-49
2022/05/27 03:42:44;;;;;;;;;;;;;;;25.79;54.67;98814.81;2085795;28;20012;-49
2022/05/27 03:43:45;;;;;;;;;;;;;;;25.80;55.11;98822.72;2083586;28;19964;-47
2022/05/27 03:44:50;;;;;;;;;;;;;;;25.81;55.13;98818.13;2084945;28;19936;-46
2022/05/27 03:45:52;;;;;;;;;;;;;;;25.81;54.83;98820.84;2084295;28;19932;-47
2022/05/27 03:46:55;;;;;;;;;;;;;;;25.81;54.73;98818.13;2087685;28;20035;-46
2022/05/27 03:47:55;;;;;;;;;;;;;;;25.82;55.01;98827.91;2088076;28;19963;-48
2022/05/27 03:48:57;;;;;;;;;;;;;;;25.79;54.71;98822.97;2087494;28;19929;-46
2022/05/27 03:49:59;;;;;;;;;;;;;;;25.78;54.50;98827.59;2086756;28;19935;-46
2022/05/27 03:51:01;;;;;;;;;;;;;;;25.80;54.56;98832.78;2086266;28;19961;-50
2022/05/27 03:52:06;;;;;;;;;;;;;;;25.79;54.63;98822.97;2085839;28;19928;-45
2022/05/27 03:53:07;;;;;;;;;;;;;;;25.79;54.58;98822.97;2085682;28;19964;-47
2022/05/27 03:54:11;;;;;;;;;;;;;;;25.81;54.38;98828.97;2085496;28;20417;-49
2022/05/27 03:55:14;;;;;;;;;;;;;;;25.78;54.55;98827.59;2083265;28;19947;-45
2022/05/27 03:56:16;;;;;;;;;;;;;;;25.78;54.79;98822.16;2089055;28;20011;-47
2022/05/27 03:57:18;;;;;;;;;;;;;;;25.77;54.38;98825.09;2083845;28;19935;-50
2022/05/27 03:58:18;;;;;;;;;;;;;;;25.77;54.81;98825.09;2086114;28;19968;-49
2022/05/27 03:59:20;;;;;;;;;;;;;;;25.79;54.82;98825.69;2087582;28;19932;-47
2022/05/27 04:00:21;;;;;;;;;;;;;;;25.79;54.36;98822.97;2086905;28;19956;-47
2022/05/27 04:01:25;;;;;;;;;;;;;;;25.78;54.40;98824.88;2087170;28;19939;-47
2022/05/27 04:02:25;;;;;;;;;;;;;;;25.78;54.33;98824.03;2086699;28;20096;-48
2022/05/27 04:03:27;;;;;;;;;;;;;;;25.78;54.30;98827.59;2086082;28;20627;-45
2022/05/27 04:04:28;;;;;;;;;;;;;;;25.79;54.20;98828.41;2090774;28;19963;-46
2022/05/27 04:05:30;;;;;;;;;;;;;;;25.77;54.15;98828.66;2083061;28;19929;-46
2022/05/27 04:06:31;;;;;;;;;;;;;;;25.76;54.09;98829.72;2084220;28;19955;-47
2022/05/27 04:07:34;;;;;;;;;;;;;;;25.75;54.27;98827.25;2086686;28;20379;-46
2022/05/27 04:08:34;;;;;;;;;;;;;;;25.78;54.04;98832.19;2086558;28;19971;-47
2022/05/27 04:09:36;;;;;;;;;;;;;;;25.77;53.98;98825.09;2090600;28;19932;-47
2022/05/27 04:10:37;;;;;;;;;;;;;;;25.75;54.13;98828.06;2086507;28;19933;-47
2022/05/27 04:11:38;;;;;;;;;;;;;;;25.75;54.36;98832.69;2087465;28;20024;-47
2022/05/27 04:12:39;;;;;;;;;;;;;;;25.76;54.17;98826.19;2087551;28;19975;-50
2022/05/27 04:13:41;;;;;;;;;;;;;;;25.75;54.15;98824.53;2086123;28;19925;-48
2022/05/27 04:14:41;;;;;;;;;;;;;;;25.77;53.93;98819.66;2083272;28;19933;-46
2022/05/27 04:15:43;;;;;;;;;;;;;;;25.76;54.18;98827.00;2082057;28;20563;-48
2022/05/27 04:16:44;;;;;;;;;;;;;;;25.76;54.24;98827.00;2085974;28;19979;-47
2022/05/27 04:17:45;;;;;;;;;;;;;;;25.76;54.49;98824.28;2087721;28;20309;-48
2022/05/27 04:18:46;;;;;;;;;;;;;;;25.76;54.39;98827.00;2087743;28;19925;-50
2022/05/27 04:19:47;;;;;;;;;;;;;;;25.76;54.39;98820.75;2087805;28;19929;-47
2022/05/27 04:20:49;;;;;;;;;;;;;;;25.76;54.18;98821.56;2087018;28;19982;-47
2022/05/27 04:21:49;;;;;;;;;;;;;;;25.76;54.24;98827.00;2085833;28;19950;-46
2022/05/27 04:22:55;;;;;;;;;;;;;;;25.76;54.62;98828.91;2087477;28;19932;-47
2022/05/27 04:23:55;;;;;;;;;;;;;;;25.77;54.31;98830.53;2087495;28;19985;-47
2022/05/27 04:24:58;;;;;;;;;;;;;;;25.76;54.44;98824.28;2086434;28;19943;-48
2022/05/27 04:25:59;;;;;;;;;;;;;;;25.76;54.73;98824.28;2088569;28;19925;-47
2022/05/27 04:27:00;;;;;;;;;;;;;;;25.76;54.53;98831.59;2089811;28;19960;-48
2022/05/27 04:28:01;;;;;;;;;;;;;;;25.76;54.37;98829.72;2083563;28;19925;-47
2022/05/27 04:29:03;;;;;;;;;;;;;;;25.76;55.12;98831.59;2082834;28;19935;-48
2022/05/27 04:30:05;;;;;;;;;;;;;;;25.74;55.21;98833.75;2086836;28;19977;-50
2022/05/27 04:31:07;;;;;;;;;;;;;;;25.75;55.22;98835.41;2087651;28;20447;-48
2022/05/27 04:32:07;;;;;;;;;;;;;;;25.75;54.73;98835.41;2086273;28;19964;-49
2022/05/27 04:33:09;;;;;;;;;;;;;;;25.76;54.88;98834.31;2088393;28;19932;-49
2022/05/27 04:34:10;;;;;;;;;;;;;;;25.75;54.54;98835.41;2089349;28;19979;-48
2022/05/27 04:35:12;;;;;;;;;;;;;;;25.75;54.46;98838.13;2088023;28;20489;-49
2022/05/27 04:36:15;;;;;;;;;;;;;;;25.75;54.85;98838.94;2086775;28;19932;-49
2022/05/27 04:37:16;;;;;;;;;;;;;;;25.76;54.85;98837.03;2086958;28;19946;-46
2022/05/27 04:38:18;;;;;;;;;;;;;;;25.76;54.63;98839.75;2086218;28;19932;-48
2022/05/27 04:39:20;;;;;;;;;;;;;;;25.75;54.95;98840.84;2086069;28;19939;-45
2022/05/27 04:40:21;;;;;;;;;;;;;;;25.75;54.67;98838.94;2087549;28;19924;-47
2022/05/27 04:41:24;;;;;;;;;;;;;;;25.73;55.05;98837.53;2085247;28;19932;-48
2022/05/27 04:42:25;;;;;;;;;;;;;;;25.72;55.17;98839.44;2084180;28;19929;-49
2022/05/27 04:43:27;;;;;;;;;;;;;;;25.70;55.04;98835.31;2089332;28;19928;-47
2022/05/27 04:44:28;;;;;;;;;;;;;;;25.71;55.48;98839.66;2082707;28;19936;-48
2022/05/27 04:45:30;;;;;;;;;;;;;;;25.71;55.46;98837.78;2085800;28;19925;-45
2022/05/27 04:46:30;;;;;;;;;;;;;;;25.72;55.47;98831.28;2086804;28;19929;-47
2022/05/27 04:47:32;;;;;;;;;;;;;;;25.73;54.55;98834.81;2088162;28;20049;-45
2022/05/27 04:48:32;;;;;;;;;;;;;;;25.73;54.83;98834.81;2087227;28;19982;-48
2022/05/27 04:49:53;;;;;;;;;;;;;;;25.73;54.82;98830.22;2088923;28;20653;-45
2022/05/27 04:50:55;;;;;;;;;;;;;;;25.73;54.25;98834.81;2083335;28;19928;-46
2022/05/27 04:51:55;;;;;;;;;;;;;;;25.73;54.44;98832.09;2085573;28;19928;-50
2022/05/27 04:52:57;;;;;;;;;;;;;;;25.72;54.33;98828.56;2086725;28;20570;-47
2022/05/27 04:53:59;;;;;;;;;;;;;;;25.71;54.03;98826.91;2089074;28;20506;-49
2022/05/27 04:55:02;;;;;;;;;;;;;;;25.69;53.83;98831.78;2088608;28;20578;-46
2022/05/27 04:56:02;;;;;;;;;;;;;;;25.70;54.05;98835.31;2087420;28;20007;-50
2022/05/27 04:57:04;;;;;;;;;;;;;;;25.70;54.24;98836.13;2088725;28;20449;-46
2022/05/27 04:58:07;;;;;;;;;;;;;;;25.70;53.90;98829.88;2084374;28;19928;-49
2022/05/27 04:59:07;;;;;;;;;;;;;;;25.70;54.23;98830.69;2085091;28;19939;-47
2022/05/27 05:00:11;;;;;;;;;;;;;;;25.69;53.88;98834.50;2086620;28;19990;-49
2022/05/27 05:01:13;;;;;;;;;;;;;;;25.71;53.55;98834.22;2083828;28;19928;-48
2022/05/27 05:02:14;;;;;;;;;;;;;;;25.70;53.95;98836.13;2091050;28;19924;-46
2022/05/27 05:03:15;;;;;;;;;;;;;;;25.72;53.66;98838.63;2086455;28;19939;-45
2022/05/27 05:04:16;;;;;;;;;;;;;;;25.73;54.15;98841.06;2090265;28;19925;-46
2022/05/27 05:05:19;;;;;;;;;;;;;;;25.71;53.79;98836.94;2086315;28;19940;-50
2022/05/27 05:06:19;;;;;;;;;;;;;;;25.71;53.90;98835.06;2088506;28;19929;-50
2022/05/27 05:07:22;;;;;;;;;;;;;;;25.71;53.70;98834.22;2088191;28;19935;-47
2022/05/27 05:08:28;;;;;;;;;;;;;;;25.71;53.78;98836.94;2085807;28;19990;-47
2022/05/27 05:09:31;;;;;;;;;;;;;;;25.69;54.52;98837.22;2085756;28;19929;-48
2022/05/27 05:10:33;;;;;;;;;;;;;;;25.66;54.71;98834.13;2083402;28;20377;-49
2022/05/27 05:11:34;;;;;;;;;;;;;;;25.65;55.35;98836.03;2086171;28;19963;-47
2022/05/27 05:12:36;;;;;;;;;;;;;;;25.63;55.72;98830.88;2088250;28;20349;-45
2022/05/27 05:13:36;;;;;;;;;;;;;;;25.61;56.00;98832.19;2083864;28;21654;-48
2022/05/27 05:14:38;;;;;;;;;;;;;;;25.62;55.93;98837.34;2085738;28;19933;-47
2022/05/27 05:15:39;;;;;;;;;;;;;;;25.63;55.75;98832.75;2088902;28;20408;-46
2022/05/27 05:16:41;;;;;;;;;;;;;;;25.62;56.41;98836.53;2090584;28;20015;-47
2022/05/27 05:17:43;;;;;;;;;;;;;;;25.63;56.32;98830.03;2084855;28;19928;-46
2022/05/27 05:18:45;;;;;;;;;;;;;;;25.63;56.54;98830.03;2084549;28;19925;-47
2022/05/27 05:19:45;;;;;;;;;;;;;;;25.62;56.49;98828.38;2087705;28;20603;-46
2022/05/27 05:20:47;;;;;;;;;;;;;;;25.62;56.52;98829.19;2087314;28;19929;-48
2022/05/27 05:21:47;;;;;;;;;;;;;;;25.61;56.40;98824.03;2085243;28;20409;-49
2022/05/27 05:22:49;;;;;;;;;;;;;;;25.60;56.74;98833.22;2089473;28;19935;-46
2022/05/27 05:23:50;;;;;;;;;;;;;;;25.61;56.84;98829.47;2084137;28;19972;-50
2022/05/27 05:24:54;;;;;;;;;;;;;;;25.60;56.86;98831.38;2086402;28;19925;-47
2022/05/27 05:25:55;;;;;;;;;;;;;;;25.59;56.74;98835.13;2084965;28;19971;-46
2022/05/27 05:26:56;;;;;;;;;;;;;;;25.59;57.01;98829.69;2088400;28;19954;-51
2022/05/27 05:27:57;;;;;;;;;;;;;;;25.59;56.96;98829.69;2082919;28;19958;-48
2022/05/27 05:28:58;;;;;;;;;;;;;;;25.60;57.09;98828.66;2082003;28;19928;-49
2022/05/27 05:29:59;;;;;;;;;;;;;;;25.59;57.03;98835.13;2085832;28;20015;-48
2022/05/27 05:31:00;;;;;;;;;;;;;;;25.59;57.01;98837.84;2086141;28;19931;-48
2022/05/27 05:32:01;;;;;;;;;;;;;;;25.58;57.08;98833.50;2086692;28;19967;-46
2022/05/27 05:33:02;;;;;;;;;;;;;;;25.60;57.39;98841.38;2086636;28;19925;-49
2022/05/27 05:34:03;;;;;;;;;;;;;;;25.61;57.08;98838.44;2088128;28;19924;-48
2022/05/27 05:35:05;;;;;;;;;;;;;;;25.61;57.52;98841.16;2087287;28;19956;-47